ADDS METAR Data INFO
IDs: Format: Raw Decoded Include TAF

Data at: 1811 UTC 18 Feb 2018

KGBD 181756Z AUTO 19025G42KT 10SM CLR 14/02 A2969 RMK AO2 PK WND 20042/1749 SLP054 T01390022 10139 20050 56045
KGBD 181656Z AUTO 19031G39KT 9SM CLR 13/01 A2971 RMK AO2 PK WND 19042/1635 PRESFR SLP065 T01280006
KGBD 181556Z AUTO 18026G35KT 9SM CLR 08/M02 A2976 RMK AO2 PK WND 18036/1531 SLP083 T00781017
KGBD 181456Z AUTO 17020G25KT 10SM CLR 07/M03 A2983 RMK AO2 PK WND 18030/1423 SLP111 T00671033 56023
KGBD 181356Z AUTO 17023G30KT 10SM CLR 06/M04 A2985 RMK AO2 PK WND 18031/1337 SLP119 T00561039
KGBD 181256Z AUTO 18021G26KT 10SM CLR 06/M05 A2986 RMK AO2 PK WND 18026/1256 SLP118 T00561050
KGBD 181156Z AUTO 17014KT 10SM CLR 06/M07 A2990 RMK AO2 SLP128 T00611067 10067 20033 56029
KGBD 181056Z AUTO 19017KT 10SM CLR 06/M06 A2992 RMK AO2 SLP133 T00611056
KGBD 180956Z AUTO 19015KT 10SM CLR 06/M06 A2996 RMK AO2 SLP146 T00611056
KGBD 180856Z AUTO 18011KT 10SM CLR 04/M06 A2999 RMK AO2 SLP158 T00441061 56023
KGBD 180756Z AUTO 18015KT 10SM CLR 05/M07 A3001 RMK AO2 SLP165 T00501072
KGBD 180656Z AUTO 16013KT 10SM CLR 04/M11 A3003 RMK AO2 SLP173 T00441111
KGBD 180556Z AUTO 16014KT 10SM CLR 04/M11 A3006 RMK AO2 SLP185 T00391111 10100 20000 401441061 58021
KGBD 180456Z AUTO 16011KT 10SM CLR 02/M12 A3010 RMK AO2 SLP198 T00221117 FZRANO
KGBD 180356Z AUTO 16010KT 10SM CLR 02/M11 A3012 RMK AO2 SLP207 T00221111 FZRANO
KGBD 180256Z AUTO 17008KT 10SM CLR 00/M12 A3013 RMK AO2 SLP215 T00001122 50006 FZRANO
KGBD 180156Z AUTO 17008KT 10SM CLR 01/M13 A3014 RMK AO2 SLP224 T00061128 FZRANO
KGBD 180056Z AUTO 16006KT 10SM CLR 04/M13 A3013 RMK AO2 SLP219 T00441128
KGBD 172356Z AUTO 01007KT 10SM CLR 10/M13 A3011 RMK AO2 SLP208 T01001128 10144 20100 50000
KGBD 172256Z AUTO 35009KT 10SM CLR 14/M13 A3012 RMK AO2 SLP207 T01391128
KGBD 172156Z AUTO 36009KT 10SM CLR 14/M11 A3011 RMK AO2 SLP204 T01391106
KGBD 172056Z AUTO 01012KT 10SM CLR 14/M10 A3011 RMK AO2 SLP202 T01391100 58004
KGBD 171956Z AUTO 32015G19KT 10SM CLR 13/M08 A3011 RMK AO2 SLP204 T01331083
KGBD 171856Z AUTO 35016G24KT 10SM CLR 13/M09 A3013 RMK AO2 SLP208 T01331089
KGBD 171756Z AUTO 34018G22KT 10SM CLR 12/M07 A3013 RMK AO2 SLP208 T01171067 10117 21061 51034
KGBD 171656Z AUTO 33019G25KT 10SM CLR 09/M06 A3010 RMK AO2 PK WND 33028/1643 SLP203 T00941056
KGBD 171556Z AUTO 33020G27KT 10SM CLR 07/M07 A3006 RMK AO2 PK WND 34027/1551 SLP191 T00721067
KGBD 171456Z AUTO 33017KT 10SM CLR 04/M07 A3002 RMK AO2 SLP179 T00391072 51023 TSNO
KGBD 171356Z AUTO 29007KT 10SM CLR M06/M09 A3000 RMK AO2 SLP177 T10561089 FZRANO
KGBD 171256Z AUTO 27006KT 10SM CLR M04/M08 A2998 RMK AO2 SLP170 T10441083 FZRANO
KGBD 171156Z AUTO 24006KT 10SM CLR M03/M08 A2995 RMK AO2 SLP158 T10331083 10006 21033 53013 FZRANO
KGBD 171056Z AUTO 20006KT 10SM CLR M02/M07 A2991 RMK AO2 SLP142 T10171072 FZRANO
KGBD 170956Z AUTO 18009KT 10SM CLR M01/M07 A2990 RMK AO2 SLP139 T10061072 FZRANO
KGBD 170856Z AUTO 17012KT 10SM CLR 01/M08 A2991 RMK AO2 SLP140 T00061083 56028 FZRANO
KGBD 170756Z AUTO 17017KT 10SM CLR 00/M09 A2993 RMK AO2 SLP148 T00001089 FZRANO
KGBD 170656Z AUTO 17012KT 10SM CLR 00/M09 A2998 RMK AO2 SLP166 T00001094 FZRANO